Time;durP1;ratioP1;P1;durP2;ratioP2;P2;SDS_P1;SDS_P2;PMS_P1;PMS_P2;Temp;Humidity;BMP_temperature;BMP_pressure;BME280_temperature;BME280_humidity;BME280_pressure;Samples;Min_cycle;Max_cycle;Signal;HPM_P1;HPM_P2
2022/07/24 00:00:56;;;;;;;2.05;1.83;;;21.60;99.90;;;;;;4098017;28;20035;-67
2022/07/24 00:02:56;;;;;;;2.53;2.10;;;21.60;99.90;;;;;;4098720;28;20039;-67
2022/07/24 00:04:58;;;;;;;2.08;1.80;;;21.60;99.90;;;;;;4097698;28;20047;-67
2022/07/24 00:06:58;;;;;;;2.85;1.98;;;21.60;99.90;;;;;;4089142;29;20039;-66
2022/07/24 00:08:59;;;;;;;2.20;2.00;;;21.60;99.90;;;;;;4098273;28;20402;-67
2022/07/24 00:11:00;;;;;;;2.85;2.10;;;21.50;99.90;;;;;;4098156;28;20035;-67
2022/07/24 00:13:00;;;;;;;2.60;2.40;;;21.50;99.90;;;;;;4098328;28;20030;-67
2022/07/24 00:15:01;;;;;;;3.22;2.25;;;21.50;99.90;;;;;;4097683;28;20450;-67
2022/07/24 00:17:02;;;;;;;2.97;2.03;;;21.50;99.90;;;;;;4097845;28;20096;-67
2022/07/24 00:19:02;;;;;;;2.03;1.90;;;21.50;99.90;;;;;;4098039;28;20032;-66
2022/07/24 00:21:03;;;;;;;2.55;1.90;;;21.50;99.90;;;;;;4097573;28;20031;-67
2022/07/24 00:23:04;;;;;;;2.63;2.08;;;21.40;99.90;;;;;;4098112;28;20035;-67
2022/07/24 00:25:05;;;;;;;2.63;2.10;;;21.40;99.90;;;;;;4097122;28;20081;-68
2022/07/24 00:27:05;;;;;;;2.80;2.35;;;21.40;99.90;;;;;;4097758;28;20054;-67
2022/07/24 00:29:06;;;;;;;3.30;2.58;;;21.30;99.90;;;;;;4098042;28;20066;-67
2022/07/24 00:31:07;;;;;;;3.50;2.95;;;21.30;99.90;;;;;;4097636;28;20035;-66
2022/07/24 00:33:07;;;;;;;6.65;2.78;;;21.20;99.90;;;;;;4097945;28;20039;-67
2022/07/24 00:35:08;;;;;;;3.72;2.38;;;21.20;99.90;;;;;;4096842;28;20037;-67
2022/07/24 00:37:09;;;;;;;3.03;2.65;;;21.20;99.90;;;;;;4097626;28;20431;-67
2022/07/24 00:39:11;;;;;;;3.40;2.55;;;21.10;99.90;;;;;;4097839;28;20059;-67
2022/07/24 00:41:11;;;;;;;6.40;2.83;;;21.10;99.90;;;;;;4097632;28;20039;-66
2022/07/24 00:43:12;;;;;;;3.67;2.63;;;21.10;99.90;;;;;;4098103;28;20105;-67
2022/07/24 00:45:13;;;;;;;2.88;2.15;;;21.10;99.90;;;;;;4091843;29;20035;-68
2022/07/24 00:47:14;;;;;;;2.65;2.38;;;21.10;99.90;;;;;;4097520;28;20042;-67
2022/07/24 00:49:17;;;;;;;4.85;2.50;;;21.10;99.90;;;;;;4097476;29;20102;-65
2022/07/24 00:51:17;;;;;;;2.40;2.20;;;21.10;99.90;;;;;;4095573;29;20062;-67
2022/07/24 00:53:18;;;;;;;3.08;2.25;;;21.10;99.90;;;;;;4097454;29;20479;-67
2022/07/24 00:55:21;;;;;;;2.78;2.40;;;21.10;99.90;;;;;;4096209;28;20031;-67
2022/07/24 00:57:21;;;;;;;;;;;21.20;99.90;;;;;;4097888;28;20085;-67
2022/07/24 00:59:23;;;;;;;4.97;2.50;;;21.20;99.90;;;;;;4096650;28;19914;-67
2022/07/24 01:01:23;;;;;;;2.85;2.38;;;21.20;99.90;;;;;;4096940;28;20451;-67
2022/07/24 01:03:24;;;;;;;3.63;2.40;;;21.20;99.90;;;;;;4097576;28;20035;-67
2022/07/24 01:05:24;;;;;;;3.50;2.45;;;21.20;99.90;;;;;;4095760;28;20533;-67
2022/07/24 01:07:26;;;;;;;4.35;2.20;;;21.20;99.90;;;;;;4097314;28;20051;-67
2022/07/24 01:09:26;;;;;;;2.53;2.20;;;21.20;99.90;;;;;;4097469;28;20056;-67
2022/07/24 01:11:28;;;;;;;3.08;2.17;;;21.20;99.90;;;;;;4096913;28;20094;-67
2022/07/24 01:13:30;;;;;;;5.50;2.50;;;21.20;99.90;;;;;;4097347;28;20507;-67
2022/07/24 01:15:30;;;;;;;3.13;2.33;;;21.20;99.90;;;;;;4095989;28;20267;-66
2022/07/24 01:17:32;;;;;;;3.13;2.50;;;21.10;99.90;;;;;;4097140;28;20118;-67
2022/07/24 01:19:33;;;;;;;3.35;2.42;;;21.20;99.90;;;;;;4097198;29;20046;-67
2022/07/24 01:21:34;;;;;;;5.90;2.80;;;21.10;99.90;;;;;;4096583;29;20027;-67
2022/07/24 01:23:35;;;;;;;3.42;2.50;;;21.10;99.90;;;;;;4097141;28;20031;-67
2022/07/24 01:25:35;;;;;;;3.25;2.25;;;21.10;99.90;;;;;;4095355;28;20031;-67
2022/07/24 01:27:36;;;;;;;3.60;2.80;;;21.10;99.90;;;;;;4097462;28;20027;-67
2022/07/24 01:29:36;;;;;;;2.97;2.65;;;21.10;99.90;;;;;;4097123;28;20042;-67
2022/07/24 01:31:37;;;;;;;4.22;2.60;;;21.10;99.90;;;;;;4096685;28;20035;-67
2022/07/24 01:33:38;;;;;;;3.80;2.65;;;21.10;99.90;;;;;;4096808;28;20085;-67
2022/07/24 01:35:38;;;;;;;4.88;2.58;;;21.10;99.90;;;;;;4096166;28;20067;-67
2022/07/24 01:37:39;;;;;;;4.00;3.25;;;21.10;99.90;;;;;;4097342;28;20043;-67
2022/07/24 01:39:40;;;;;;;4.53;3.35;;;21.10;99.90;;;;;;4097216;28;20062;-67
2022/07/24 01:41:40;;;;;;;3.67;2.90;;;21.00;99.90;;;;;;4096813;28;20065;-67
2022/07/24 01:43:41;;;;;;;4.60;3.60;;;21.00;99.90;;;;;;4097173;28;20174;-66
2022/07/24 01:45:41;;;;;;;5.53;3.83;;;21.00;99.90;;;;;;4096258;28;20151;-67
2022/07/24 01:47:43;;;;;;;5.88;3.95;;;21.00;99.90;;;;;;4097431;28;20390;-66
2022/07/24 01:49:43;;;;;;;3.60;3.05;;;20.90;99.90;;;;;;4097249;28;20391;-66
2022/07/24 01:51:44;;;;;;;6.63;3.53;;;20.90;99.90;;;;;;4096671;28;20043;-67
2022/07/24 01:53:45;;;;;;;4.10;3.35;;;20.90;99.90;;;;;;4096909;28;20402;-67
2022/07/24 01:55:45;;;;;;;5.47;3.78;;;20.90;99.90;;;;;;4096032;28;20042;-67
2022/07/24 01:57:46;;;;;;;5.55;3.47;;;20.90;99.90;;;;;;4097315;28;20035;-67
2022/07/24 01:59:47;;;;;;;6.35;3.47;;;20.90;99.90;;;;;;4096912;28;20530;-67
2022/07/24 02:01:47;;;;;;;5.18;3.55;;;20.90;99.90;;;;;;4096244;28;20102;-66
2022/07/24 02:03:48;;;;;;;5.03;3.53;;;20.90;99.90;;;;;;4097090;28;20028;-66
2022/07/24 02:05:49;;;;;;;5.55;3.38;;;20.90;99.90;;;;;;4082407;29;20615;-67
2022/07/24 02:07:58;;;;;;;5.47;3.83;;;20.90;99.90;;;;;;4096441;29;20395;-68
2022/07/24 02:09:58;;;;;;;4.88;3.58;;;20.90;99.90;;;;;;4096579;29;20035;-67
2022/07/24 02:11:59;;;;;;;5.53;3.72;;;20.90;99.90;;;;;;4096070;29;20043;-67
2022/07/24 02:14:00;;;;;;;4.70;3.63;;;20.90;99.90;;;;;;4096563;29;20031;-67
2022/07/24 02:16:00;;;;;;;5.35;4.10;;;20.90;99.90;;;;;;4095615;28;20041;-67
2022/07/24 02:18:02;;;;;;;7.63;4.10;;;20.90;99.90;;;;;;4099543;28;20406;-67
2022/07/24 02:20:04;;;;;;;4.72;3.67;;;20.90;99.90;;;;;;4099286;28;20031;-67
2022/07/24 02:22:04;;;;;;;5.17;3.90;;;20.90;99.90;;;;;;4098873;29;20031;-67
2022/07/24 02:24:05;;;;;;;4.85;3.63;;;20.90;99.90;;;;;;4099524;29;20278;-67
2022/07/24 02:26:06;;;;;;;6.97;4.20;;;20.90;99.90;;;;;;4098803;28;20051;-67
2022/07/24 02:28:06;;;;;;;4.65;3.95;;;20.90;99.90;;;;;;4099927;28;20035;-67
2022/07/24 02:30:10;;;;;;;5.93;3.88;;;20.90;99.90;;;;;;4099353;28;20101;-67
2022/07/24 02:32:11;;;;;;;5.97;4.35;;;20.90;99.90;;;;;;4099780;28;20062;-67
2022/07/24 02:34:12;;;;;;;5.40;3.70;;;20.90;99.90;;;;;;4099452;28;20487;-66
2022/07/24 02:36:13;;;;;;;5.07;4.22;;;20.90;99.90;;;;;;4098189;28;20360;-67
2022/07/24 02:38:13;;;;;;;5.72;4.53;;;20.90;99.90;;;;;;4099611;28;20047;-67
2022/07/24 02:40:14;;;;;;;7.75;4.20;;;20.80;99.90;;;;;;4098928;28;20027;-67
2022/07/24 02:42:15;;;;;;;9.60;4.47;;;20.80;99.90;;;;;;4099718;28;20066;-67
2022/07/24 02:44:16;;;;;;;5.47;4.00;;;20.80;99.90;;;;;;4099431;28;20047;-67
2022/07/24 02:46:16;;;;;;;4.32;3.72;;;20.80;99.90;;;;;;4098625;28;20490;-66
2022/07/24 02:48:17;;;;;;;5.15;4.38;;;20.80;99.90;;;;;;4099443;28;20061;-66
2022/07/24 02:50:19;;;;;;;5.85;3.75;;;20.80;99.90;;;;;;4097393;29;20031;-67
2022/07/24 02:52:20;;;;;;;4.43;3.88;;;20.90;99.90;;;;;;4099517;28;20035;-66
2022/07/24 02:54:20;;;;;;;6.53;4.13;;;20.80;99.90;;;;;;4098863;28;20023;-67
2022/07/24 02:56:21;;;;;;;5.47;4.30;;;20.80;99.90;;;;;;4098160;28;20051;-67
2022/07/24 02:58:22;;;;;;;6.18;4.13;;;20.80;99.90;;;;;;4099309;28;20039;-67
2022/07/24 03:00:23;;;;;;;6.57;4.25;;;20.80;99.90;;;;;;4098400;28;20032;-67
2022/07/24 03:02:24;;;;;;;6.65;4.55;;;20.80;99.90;;;;;;4099236;28;20039;-67
2022/07/24 03:04:24;;;;;;;6.72;4.18;;;20.80;99.90;;;;;;4098558;28;20031;-67
2022/07/24 03:06:25;;;;;;;6.38;4.68;;;20.80;99.90;;;;;;4098266;28;20024;-67
2022/07/24 03:08:25;;;;;;;5.68;4.05;;;20.80;99.90;;;;;;4099212;28;20094;-67
2022/07/24 03:10:26;;;;;;;6.70;4.25;;;20.80;99.90;;;;;;4098532;28;20038;-67
2022/07/24 03:12:27;;;;;;;6.50;4.68;;;20.80;99.90;;;;;;4099321;28;20114;-67
2022/07/24 03:14:27;;;;;;;6.85;4.10;;;20.80;99.90;;;;;;4097758;28;20067;-67
2022/07/24 03:16:28;;;;;;;5.38;4.22;;;20.80;99.90;;;;;;4098291;28;20035;-67
2022/07/24 03:18:28;;;;;;;6.90;4.20;;;20.80;99.90;;;;;;4098711;29;20043;-67
2022/07/24 03:20:29;;;;;;;5.75;4.55;;;20.80;99.90;;;;;;4098320;29;20384;-67
2022/07/24 03:22:30;;;;;;;6.10;4.30;;;20.80;99.90;;;;;;4098707;29;20122;-67
2022/07/24 03:24:31;;;;;;;6.53;4.50;;;20.80;99.90;;;;;;4097984;29;20710;-67
2022/07/24 03:26:31;;;;;;;4.90;3.70;;;20.80;99.90;;;;;;4098275;28;20034;-67
2022/07/24 03:28:32;;;;;;;6.00;4.25;;;20.80;99.90;;;;;;4098607;28;20106;-67
2022/07/24 03:30:33;;;;;;;5.60;4.57;;;20.80;99.90;;;;;;4098345;28;20423;-67
2022/07/24 03:32:33;;;;;;;5.75;4.32;;;20.80;99.90;;;;;;4098489;28;20535;-67
2022/07/24 03:34:34;;;;;;;5.63;4.15;;;20.80;99.90;;;;;;4098005;29;20039;-67
2022/07/24 03:36:35;;;;;;;7.07;4.75;;;20.70;99.90;;;;;;4098167;28;20064;-67
2022/07/24 03:38:35;;;;;;;7.10;4.95;;;20.80;99.90;;;;;;4098763;28;20055;-67
2022/07/24 03:40:36;;;;;;;6.72;4.72;;;20.70;99.90;;;;;;4098402;28;20027;-67
2022/07/24 03:42:37;;;;;;;5.63;4.80;;;20.80;99.90;;;;;;4098558;28;20211;-67
2022/07/24 03:44:37;;;;;;;6.32;4.30;;;20.80;99.90;;;;;;4098307;28;20509;-67
2022/07/24 03:46:38;;;;;;;6.35;4.60;;;20.80;99.90;;;;;;4098110;28;20384;-67
2022/07/24 03:48:38;;;;;;;6.38;4.57;;;20.80;99.90;;;;;;4098973;28;20127;-67
2022/07/24 03:50:39;;;;;;;6.93;5.20;;;20.70;99.90;;;;;;4098097;28;20035;-67
2022/07/24 03:52:39;;;;;;;6.07;4.72;;;20.70;99.90;;;;;;4098401;28;20060;-67
2022/07/24 03:54:40;;;;;;;6.97;4.97;;;20.60;99.90;;;;;;4097960;28;20042;-67
2022/07/24 03:56:41;;;;;;;7.55;5.28;;;20.60;99.90;;;;;;4097840;28;20098;-67
2022/07/24 03:58:42;;;;;;;6.50;4.80;;;20.60;99.90;;;;;;4098469;28;20102;-67
2022/07/24 04:00:43;;;;;;;7.75;5.85;;;20.50;99.90;;;;;;4097604;28;20054;-66
2022/07/24 04:02:43;;;;;;;6.35;5.18;;;20.50;99.90;;;;;;4095907;28;20023;-67
2022/07/24 04:04:45;;;;;;;7.10;5.28;;;20.40;99.90;;;;;;4096353;28;20411;-67
2022/07/24 04:06:45;;;;;;;7.32;4.95;;;20.50;99.90;;;;;;4096974;28;20039;-67
2022/07/24 04:08:47;;;;;;;8.55;5.28;;;20.40;99.90;;;;;;4098179;29;20039;-67
2022/07/24 04:10:48;;;;;;;7.03;5.32;;;20.40;99.90;;;;;;4097549;29;20467;-67
2022/07/24 04:12:48;;;;;;;7.80;4.90;;;20.40;99.90;;;;;;4096774;29;20375;-67
2022/07/24 04:14:49;;;;;;;6.20;4.95;;;20.40;99.90;;;;;;4092153;29;20162;-67
2022/07/24 04:16:50;;;;;;;8.23;5.45;;;20.40;99.90;;;;;;4097115;28;20122;-67
2022/07/24 04:18:51;;;;;;;8.43;4.75;;;20.40;99.90;;;;;;4097981;28;20486;-67
2022/07/24 04:20:52;;;;;;;8.07;5.45;;;20.40;99.90;;;;;;4096360;28;20023;-67
2022/07/24 04:22:53;;;;;;;6.47;5.28;;;20.40;99.90;;;;;;4097200;28;20035;-67
2022/07/24 04:24:53;;;;;;;9.15;6.00;;;20.40;99.90;;;;;;4095194;28;20039;-67
2022/07/24 04:26:54;;;;;;;7.35;5.18;;;20.40;99.90;;;;;;4095344;28;20506;-67
2022/07/24 04:28:54;;;;;;;8.13;5.03;;;20.40;99.90;;;;;;4096562;29;20042;-67
2022/07/24 04:30:55;;;;;;;6.47;5.13;;;20.40;99.90;;;;;;4093995;28;20047;-67
2022/07/24 04:32:56;;;;;;;7.88;5.18;;;20.30;99.90;;;;;;4097777;28;20032;-67
2022/07/24 04:34:57;;;;;;;9.30;4.93;;;20.30;99.90;;;;;;4096950;28;20642;-67
2022/07/24 04:36:58;;;;;;;6.68;5.28;;;20.40;99.90;;;;;;4097630;28;20530;-67
2022/07/24 04:38:58;;;;;;;8.15;5.53;;;20.40;99.90;;;;;;4097351;28;20031;-67
2022/07/24 04:40:59;;;;;;;6.88;5.05;;;20.40;99.90;;;;;;4097394;28;20074;-67
2022/07/24 04:43:00;;;;;;;8.18;4.93;;;20.40;99.90;;;;;;4095497;29;20035;-67
2022/07/24 04:45:00;;;;;;;5.63;4.40;;;20.40;99.90;;;;;;4095245;28;20113;-67
2022/07/24 04:47:01;;;;;;;6.75;4.85;;;20.40;99.90;;;;;;4097035;28;20058;-67
2022/07/24 04:49:02;;;;;;;7.18;5.55;;;20.50;99.90;;;;;;4083792;29;20035;-67
2022/07/24 04:51:02;;;;;;;5.90;5.07;;;20.40;99.90;;;;;;4081508;29;20038;-67
2022/07/24 04:53:03;;;;;;;10.48;5.40;;;20.50;99.90;;;;;;4086512;29;20034;-67
2022/07/24 04:55:04;;;;;;;8.88;5.80;;;20.50;99.90;;;;;;4096594;28;20448;-67
2022/07/24 04:57:05;;;;;;;9.25;5.75;;;20.40;99.90;;;;;;4097626;28;20511;-67
2022/07/24 04:59:05;;;;;;;8.35;5.63;;;20.40;99.90;;;;;;4097315;28;20050;-67
2022/07/24 05:01:06;;;;;;;7.30;5.70;;;20.40;99.90;;;;;;4096226;28;20039;-67
2022/07/24 05:03:07;;;;;;;11.75;6.28;;;20.40;99.90;;;;;;4096668;28;20086;-67
2022/07/24 05:05:08;;;;;;;10.48;6.78;;;20.30;99.90;;;;;;4096304;28;20046;-67
2022/07/24 05:07:08;;;;;;;23.23;6.60;;;20.30;99.90;;;;;;4097395;28;20497;-67
2022/07/24 05:09:09;;;;;;;11.02;6.65;;;20.30;99.90;;;;;;4097588;28;20403;-67
2022/07/24 05:11:10;;;;;;;8.55;6.43;;;20.20;99.90;;;;;;4097190;28;20096;-67
2022/07/24 05:13:10;;;;;;;10.05;6.43;;;20.20;99.90;;;;;;4096826;28;20034;-67
2022/07/24 05:15:11;;;;;;;9.55;6.10;;;20.30;99.90;;;;;;4095391;28;20050;-67
2022/07/24 05:17:12;;;;;;;9.77;6.35;;;20.20;99.90;;;;;;4097500;28;21596;-67
2022/07/24 05:19:12;;;;;;;9.75;6.13;;;20.30;99.90;;;;;;4097273;28;20398;-67
2022/07/24 05:21:14;;;;;;;7.05;4.88;;;20.30;99.90;;;;;;4078881;29;20038;-66
2022/07/24 05:23:15;;;;;;;7.13;5.67;;;20.30;99.90;;;;;;4092896;29;20043;-67
2022/07/24 05:25:16;;;;;;;6.00;5.30;;;20.30;99.90;;;;;;4095477;29;20058;-67
2022/07/24 05:27:17;;;;;;;8.23;6.03;;;20.40;99.90;;;;;;4078401;29;20035;-67
2022/07/24 05:29:18;;;;;;;8.70;6.05;;;20.40;99.90;;;;;;4093386;28;20120;-67
2022/07/24 05:31:19;;;;;;;7.75;5.38;;;20.40;99.90;;;;;;4094996;28;20039;-67
2022/07/24 05:33:19;;;;;;;7.10;5.53;;;20.40;99.90;;;;;;4094386;28;20038;-67
2022/07/24 05:35:20;;;;;;;8.95;5.75;;;20.40;99.90;;;;;;4097030;28;20039;-67
2022/07/24 05:37:21;;;;;;;10.07;5.75;;;20.40;99.90;;;;;;4095619;29;20039;-67
2022/07/24 05:39:21;;;;;;;9.30;5.88;;;20.40;99.90;;;;;;4094325;28;20031;-68
2022/07/24 05:41:22;;;;;;;9.98;5.90;;;20.40;99.90;;;;;;4095546;28;20031;-68
2022/07/24 05:43:22;;;;;;;6.53;5.53;;;20.50;99.90;;;;;;4094764;28;20039;-68
2022/07/24 05:45:23;;;;;;;7.57;5.30;;;20.40;99.90;;;;;;4093711;28;20059;-68
2022/07/24 05:47:24;;;;;;;8.30;5.72;;;20.40;99.90;;;;;;4095626;29;20031;-67
2022/07/24 05:49:24;;;;;;;9.07;5.90;;;20.40;99.90;;;;;;4095035;28;20372;-67
2022/07/24 05:51:25;;;;;;;7.40;5.85;;;20.50;99.90;;;;;;4097116;28;20035;-67
2022/07/24 05:53:26;;;;;;;10.80;5.80;;;20.50;99.90;;;;;;4097362;28;20487;-67
2022/07/24 05:55:28;;;;;;;8.30;6.45;;;20.60;99.90;;;;;;4098156;28;20071;-67
2022/07/24 05:57:28;;;;;;;10.02;5.65;;;20.50;99.90;;;;;;4098671;28;20041;-67
2022/07/24 05:59:29;;;;;;;7.50;5.40;;;20.60;99.90;;;;;;4098439;28;20071;-67
2022/07/24 06:01:30;;;;;;;7.78;5.22;;;20.70;99.90;;;;;;4098459;28;20102;-67
2022/07/24 06:03:30;;;;;;;7.97;5.43;;;20.70;99.90;;;;;;4098722;28;20047;-67
2022/07/24 06:05:31;;;;;;;6.82;4.85;;;20.70;99.90;;;;;;4098325;28;20069;-67
2022/07/24 06:07:31;;;;;;;7.90;5.00;;;20.80;99.90;;;;;;4098142;28;20098;-67
2022/07/24 06:09:32;;;;;;;7.30;5.28;;;20.90;99.90;;;;;;4097027;28;20491;-67
2022/07/24 06:11:33;;;;;;;10.18;5.07;;;21.00;99.90;;;;;;4099661;28;20130;-67
2022/07/24 06:13:33;;;;;;;9.45;5.70;;;21.20;99.90;;;;;;4085717;29;20067;-67
2022/07/24 06:15:34;;;;;;;6.78;4.85;;;21.40;99.90;;;;;;4097832;28;20032;-67
2022/07/24 06:17:35;;;;;;;6.68;5.32;;;21.70;99.90;;;;;;4098706;28;20058;-67
2022/07/24 06:19:35;;;;;;;6.57;4.78;;;22.10;99.90;;;;;;4097850;28;20039;-67
2022/07/24 06:21:36;;;;;;;7.70;4.57;;;22.40;99.90;;;;;;4098503;28;20046;-67
2022/07/24 06:23:36;;;;;;;6.45;4.40;;;22.80;99.90;;;;;;4096255;28;20051;-68
2022/07/24 06:25:37;;;;;;;9.52;5.43;;;23.10;99.90;;;;;;4100051;28;20037;-67
2022/07/24 06:27:49;;;;;;;7.82;5.10;;;23.40;99.90;;;;;;4098406;28;20043;-68
2022/07/24 06:29:49;;;;;;;9.25;5.07;;;23.70;99.90;;;;;;4097899;29;20035;-68
2022/07/24 06:31:50;;;;;;;6.95;4.80;;;24.00;99.90;;;;;;4097567;29;20122;-68
2022/07/24 06:33:51;;;;;;;7.30;5.57;;;24.30;99.90;;;;;;4097401;28;20031;-68
2022/07/24 06:35:51;;;;;;;6.47;4.70;;;24.50;99.90;;;;;;4098189;28;20399;-68
2022/07/24 06:37:52;;;;;;;5.13;4.13;;;24.80;99.90;;;;;;4097136;29;20043;-70
2022/07/24 06:39:53;;;;;;;5.63;4.10;;;25.00;99.90;;;;;;4096889;28;20045;-70
2022/07/24 06:41:53;;;;;;;6.28;5.13;;;25.30;99.30;;;;;;4098238;28;20027;-67
2022/07/24 06:43:54;;;;;;;6.68;4.82;;;25.60;98.10;;;;;;4097844;28;20034;-67
2022/07/24 06:45:55;;;;;;;6.00;4.25;;;25.70;97.30;;;;;;4088570;29;20039;-66
2022/07/24 06:47:55;;;;;;;8.23;4.97;;;26.00;97.40;;;;;;4098016;28;20035;-67
2022/07/24 06:49:56;;;;;;;9.23;5.43;;;26.20;96.40;;;;;;4097970;29;20038;-68
2022/07/24 06:51:56;;;;;;;4.60;3.72;;;26.30;96.60;;;;;;4098106;28;20123;-68
2022/07/24 06:53:57;;;;;;;7.18;4.70;;;26.40;96.50;;;;;;4095687;28;20091;-68
2022/07/24 06:55:57;;;;;;;5.72;4.53;;;26.50;96.10;;;;;;4097234;28;20442;-68
2022/07/24 06:57:58;;;;;;;7.50;5.13;;;26.40;95.90;;;;;;4098168;28;20482;-68
2022/07/24 06:59:59;;;;;;;6.60;4.93;;;26.60;95.60;;;;;;4097239;28;20046;-68
2022/07/24 07:01:59;;;;;;;7.93;5.43;;;26.50;95.60;;;;;;4097277;28;20043;-68
2022/07/24 07:04:00;;;;;;;6.65;4.88;;;26.40;95.50;;;;;;4096909;28;20031;-67
2022/07/24 07:06:00;;;;;;;7.80;5.03;;;26.50;96.10;;;;;;4098070;28;20512;-68
2022/07/24 07:08:01;;;;;;;10.20;6.72;;;26.50;95.30;;;;;;4097196;28;20070;-67
2022/07/24 07:10:02;;;;;;;12.05;6.43;;;26.50;95.40;;;;;;4093394;28;20039;-68
2022/07/24 07:12:04;;;;;;;7.95;5.28;;;26.50;95.80;;;;;;4094033;29;20071;-68
2022/07/24 07:14:05;;;;;;;10.55;5.30;;;26.50;95.80;;;;;;4097615;28;20443;-67
2022/07/24 07:16:06;;;;;;;6.00;4.75;;;26.60;95.90;;;;;;4081725;29;20032;-67
2022/07/24 07:18:06;;;;;;;7.43;4.88;;;26.60;96.00;;;;;;4097667;28;20050;-68
2022/07/24 07:20:09;;;;;;;8.18;5.00;;;26.60;96.10;;;;;;4097627;28;20487;-68
2022/07/24 07:22:10;;;;;;;7.97;5.85;;;26.80;95.10;;;;;;4097354;28;20178;-68
2022/07/24 07:24:11;;;;;;;8.48;5.95;;;26.70;95.50;;;;;;4095572;28;20118;-68
2022/07/24 07:26:12;;;;;;;8.98;6.43;;;26.70;95.00;;;;;;4096329;28;20088;-68
2022/07/24 07:28:12;;;;;;;11.15;6.55;;;26.70;95.60;;;;;;4097182;28;20912;-68
2022/07/24 07:30:13;;;;;;;11.60;7.22;;;26.80;96.00;;;;;;4096083;28;20043;-68
2022/07/24 07:32:13;;;;;;;10.18;6.50;;;26.70;94.90;;;;;;4079482;29;20059;-68
2022/07/24 07:34:14;;;;;;;11.02;6.93;;;26.70;95.40;;;;;;4096382;28;20047;-67
2022/07/24 07:36:15;;;;;;;10.25;6.28;;;26.60;95.40;;;;;;4095256;28;20419;-68
2022/07/24 07:38:15;;;;;;;11.38;8.13;;;26.60;95.80;;;;;;4095504;28;20111;-68
2022/07/24 07:40:16;;;;;;;8.93;6.75;;;26.60;95.50;;;;;;4093852;28;20118;-68
2022/07/24 07:42:17;;;;;;;9.60;6.25;;;26.60;95.20;;;;;;4091065;28;20114;-67
2022/07/24 07:44:17;;;;;;;12.90;7.25;;;26.60;96.10;;;;;;4093883;28;20039;-67
2022/07/24 07:46:18;;;;;;;12.60;7.68;;;26.50;95.40;;;;;;4094337;28;20066;-67
2022/07/24 07:48:18;;;;;;;10.10;6.50;;;26.60;95.90;;;;;;4093579;29;20114;-68
2022/07/24 07:50:19;;;;;;;10.20;7.90;;;26.60;95.70;;;;;;4095516;28;20031;-68
2022/07/24 07:52:20;;;;;;;12.27;7.72;;;26.60;95.80;;;;;;4095315;28;20039;-68
2022/07/24 07:54:20;;;;;;;9.38;6.40;;;26.60;95.80;;;;;;4096136;28;20035;-68
2022/07/24 07:56:21;;;;;;;11.07;6.50;;;26.60;96.30;;;;;;4096882;28;20510;-68
2022/07/24 07:58:22;;;;;;;10.68;6.28;;;26.60;95.60;;;;;;4098312;28;20514;-67
2022/07/24 08:00:23;;;;;;;8.85;6.47;;;26.70;95.80;;;;;;4095835;28;21093;-70
2022/07/24 08:02:23;;;;;;;10.32;7.20;;;26.70;96.60;;;;;;4094350;28;20046;-69
2022/07/24 08:04:25;;;;;;;12.73;8.57;;;26.70;96.00;;;;;;4097278;28;20431;-68
2022/07/24 08:06:25;;;;;;;14.90;7.95;;;26.70;95.20;;;;;;4096376;28;20086;-67
2022/07/24 08:08:26;;;;;;;9.95;6.85;;;26.70;95.40;;;;;;4095734;28;20036;-68
2022/07/24 08:10:27;;;;;;;11.43;6.60;;;26.80;95.60;;;;;;4096725;28;20475;-67
2022/07/24 08:12:28;;;;;;;14.93;9.40;;;26.80;96.20;;;;;;4097290;28;20039;-67
2022/07/24 08:14:28;;;;;;;15.35;7.55;;;26.80;95.50;;;;;;4097384;28;20118;-67
2022/07/24 08:16:29;;;;;;;12.30;7.38;;;26.80;96.10;;;;;;4096750;28;20047;-67
2022/07/24 08:18:29;;;;;;;10.68;5.95;;;26.80;96.20;;;;;;4084330;29;20043;-67
2022/07/24 08:20:30;;;;;;;10.50;7.05;;;26.90;96.20;;;;;;4096753;28;20094;-67
2022/07/24 08:22:31;;;;;;;12.50;6.13;;;26.90;95.80;;;;;;4092494;28;20027;-67
2022/07/24 08:24:32;;;;;;;9.80;6.72;;;27.00;95.60;;;;;;4096976;28;20102;-67
2022/07/24 08:26:32;;;;;;;7.93;6.25;;;27.10;96.90;;;;;;4088677;29;20428;-66
2022/07/24 08:28:33;;;;;;;12.55;7.80;;;27.20;95.80;;;;;;4097147;28;20106;-66
2022/07/24 08:30:34;;;;;;;7.63;6.28;;;27.20;95.10;;;;;;4096579;28;20039;-66
2022/07/24 08:32:35;;;;;;;8.63;5.43;;;27.20;95.00;;;;;;4097065;28;20043;-66
2022/07/24 08:34:36;;;;;;;8.30;6.00;;;27.30;95.60;;;;;;4096320;28;20066;-66
2022/07/24 08:36:37;;;;;;;9.65;6.38;;;27.30;95.80;;;;;;4095657;28;20031;-66
2022/07/24 08:38:37;;;;;;;8.45;5.53;;;27.40;95.70;;;;;;4093782;28;20039;-66
2022/07/24 08:40:39;;;;;;;8.10;5.80;;;27.40;95.10;;;;;;4095956;28;20043;-66
2022/07/24 08:42:40;;;;;;;9.70;6.13;;;27.50;95.00;;;;;;4096859;28;20031;-66
2022/07/24 08:44:41;;;;;;;9.18;6.30;;;27.60;94.60;;;;;;4096497;28;20411;-66
2022/07/24 08:46:42;;;;;;;9.80;6.53;;;27.60;94.40;;;;;;4095671;28;20041;-67
2022/07/24 08:48:44;;;;;;;12.15;7.50;;;27.60;94.70;;;;;;4096498;28;20057;-66
2022/07/24 08:50:45;;;;;;;10.23;6.65;;;27.60;94.70;;;;;;4096280;28;20042;-66
2022/07/24 08:52:46;;;;;;;9.10;6.82;;;27.70;94.50;;;;;;4095562;28;20024;-66
2022/07/24 08:54:46;;;;;;;7.93;5.63;;;27.70;95.10;;;;;;4095673;28;20383;-66
2022/07/24 08:56:47;;;;;;;11.13;7.53;;;27.80;94.50;;;;;;4095732;28;20062;-66
2022/07/24 08:58:48;;;;;;;9.43;7.22;;;27.80;94.40;;;;;;4095314;28;20066;-66
2022/07/24 09:00:48;;;;;;;8.40;5.85;;;27.90;94.60;;;;;;4095399;28;20051;-67
2022/07/24 09:02:49;;;;;;;6.80;5.35;;;27.90;93.90;;;;;;4096243;28;20039;-66
2022/07/24 09:04:51;;;;;;;10.48;6.50;;;27.90;94.20;;;;;;4095353;28;20063;-66
2022/07/24 09:06:58;;;;;;;10.05;5.82;;;28.00;93.70;;;;;;4095013;28;20031;-66
2022/07/24 09:09:02;;;;;;;12.40;6.00;;;28.00;94.10;;;;;;4095977;28;20039;-67
2022/07/24 09:11:04;;;;;;;10.60;7.40;;;28.00;93.90;;;;;;4095964;28;20549;-66
2022/07/24 09:13:15;;;;;;;8.80;6.68;;;28.00;93.20;;;;;;4096538;28;20118;-66
2022/07/24 09:15:20;;;;;;;9.07;6.53;;;28.00;93.60;;;;;;4096161;28;20036;-66
2022/07/24 09:17:21;;;;;;;8.68;5.85;;;28.00;93.30;;;;;;4096046;28;20090;-66
2022/07/24 09:19:22;;;;;;;9.65;5.93;;;28.10;93.40;;;;;;4095380;28;20495;-66
2022/07/24 09:21:22;;;;;;;7.50;6.15;;;28.10;93.40;;;;;;4094101;28;20047;-66
2022/07/24 09:23:23;;;;;;;9.52;6.15;;;28.10;93.70;;;;;;4095715;28;20043;-67
2022/07/24 09:25:26;;;;;;;10.75;6.35;;;28.10;92.80;;;;;;4094298;28;20039;-67
2022/07/24 09:27:27;;;;;;;6.70;4.35;;;28.10;93.00;;;;;;4093894;28;20031;-67
2022/07/24 09:29:27;;;;;;;8.05;5.10;;;28.20;93.60;;;;;;4096544;28;20060;-67
2022/07/24 09:31:28;;;;;;;5.78;4.45;;;28.30;93.00;;;;;;4095174;28;20043;-67
2022/07/24 09:33:35;;;;;;;6.28;4.15;;;28.30;93.30;;;;;;4095970;28;20075;-67
2022/07/24 09:35:38;;;;;;;9.20;5.55;;;28.40;93.00;;;;;;4094335;28;20484;-67
2022/07/24 09:37:38;;;;;;;5.20;4.00;;;28.30;91.50;;;;;;4096012;28;20453;-66
2022/07/24 09:39:40;;;;;;;9.38;6.15;;;28.40;92.10;;;;;;4095021;28;20036;-66
2022/07/24 09:41:51;;;;;;;6.75;4.85;;;28.40;92.20;;;;;;4096179;28;20135;-66
2022/07/24 09:44:01;;;;;;;5.00;3.80;;;28.40;92.80;;;;;;4095200;28;20530;-66
2022/07/24 09:46:08;;;;;;;5.93;3.88;;;28.40;92.30;;;;;;4090907;28;20439;-67
2022/07/24 09:48:10;;;;;;;6.47;4.55;;;28.50;91.10;;;;;;4096379;28;20520;-66
2022/07/24 09:50:16;;;;;;;9.25;4.25;;;28.60;92.50;;;;;;4091814;28;20082;-67
2022/07/24 09:52:18;;;;;;;6.97;3.95;;;28.70;91.70;;;;;;4093244;28;20487;-66
2022/07/24 09:54:30;;;;;;;5.10;4.18;;;28.70;91.70;;;;;;4095564;28;20479;-66
2022/07/24 09:56:31;;;;;;;6.30;4.00;;;28.70;91.70;;;;;;4094179;28;20035;-67
2022/07/24 09:58:34;;;;;;;5.78;4.13;;;28.80;91.40;;;;;;4095804;28;20149;-67
2022/07/24 10:00:35;;;;;;;6.78;4.28;;;28.80;90.70;;;;;;4094417;28;20023;-67
2022/07/24 10:02:36;;;;;;;6.10;4.38;;;28.80;91.50;;;;;;4095597;28;20431;-67
2022/07/24 10:04:40;;;;;;;5.35;3.60;;;28.80;90.70;;;;;;4095779;28;20043;-66
2022/07/24 10:06:46;;;;;;;5.00;3.72;;;28.90;90.40;;;;;;4095179;28;20031;-66
2022/07/24 10:08:50;;;;;;;5.28;3.55;;;29.00;91.70;;;;;;4094692;28;20043;-66
2022/07/24 10:10:51;;;;;;;5.28;4.13;;;29.00;92.20;;;;;;4094525;28;20115;-66
2022/07/24 10:12:52;;;;;;;5.47;3.28;;;29.00;91.20;;;;;;4095918;28;20024;-66
2022/07/24 10:14:56;;;;;;;7.85;4.32;;;29.00;91.10;;;;;;4095390;28;20039;-66
2022/07/24 10:17:08;;;;;;;4.65;3.58;;;29.10;90.20;;;;;;4094751;28;20032;-67
2022/07/24 10:19:14;;;;;;;7.85;4.32;;;29.10;90.30;;;;;;4094601;28;20035;-66
2022/07/24 10:21:18;;;;;;;8.50;4.15;;;29.20;90.20;;;;;;4096203;28;20075;-67
2022/07/24 10:23:27;;;;;;;9.75;3.80;;;29.20;90.20;;;;;;4095418;28;20047;-66
2022/07/24 10:25:38;;;;;;;8.75;4.35;;;29.30;90.70;;;;;;4091296;28;20035;-66
2022/07/24 10:27:41;;;;;;;7.15;3.80;;;29.30;89.60;;;;;;4095226;28;20051;-67
2022/07/24 10:29:43;;;;;;;6.68;3.83;;;29.30;87.70;;;;;;4095437;28;20039;-66